sensor_id;sensor_type;location;lat;lon;timestamp;temperature;humidity
67161;DHT22;54088;52.238;21.104;2022-10-31T00:00:50;10.80;93.40
67161;DHT22;54088;52.238;21.104;2022-10-31T00:03:16;10.80;93.40
67161;DHT22;54088;52.238;21.104;2022-10-31T00:05:45;10.80;93.40
67161;DHT22;54088;52.238;21.104;2022-10-31T00:08:10;10.80;93.40
67161;DHT22;54088;52.238;21.104;2022-10-31T00:10:43;10.80;93.40
67161;DHT22;54088;52.238;21.104;2022-10-31T00:13:10;10.80;93.40
67161;DHT22;54088;52.238;21.104;2022-10-31T00:15:38;10.80;93.50
67161;DHT22;54088;52.238;21.104;2022-10-31T00:18:04;10.80;93.50
67161;DHT22;54088;52.238;21.104;2022-10-31T00:20:30;10.80;93.60
67161;DHT22;54088;52.238;21.104;2022-10-31T00:23:00;10.70;93.60
67161;DHT22;54088;52.238;21.104;2022-10-31T00:25:27;10.70;93.70
67161;DHT22;54088;52.238;21.104;2022-10-31T00:27:53;10.80;93.80
67161;DHT22;54088;52.238;21.104;2022-10-31T00:30:19;10.70;93.70
67161;DHT22;54088;52.238;21.104;2022-10-31T00:32:44;10.60;93.70
67161;DHT22;54088;52.238;21.104;2022-10-31T00:35:10;10.60;93.80
67161;DHT22;54088;52.238;21.104;2022-10-31T00:37:36;10.60;93.90
67161;DHT22;54088;52.238;21.104;2022-10-31T00:40:01;10.60;94.40
67161;DHT22;54088;52.238;21.104;2022-10-31T00:42:27;10.60;94.60
67161;DHT22;54088;52.238;21.104;2022-10-31T00:44:52;10.60;94.50
67161;DHT22;54088;52.238;21.104;2022-10-31T00:47:18;10.70;94.60
67161;DHT22;54088;52.238;21.104;2022-10-31T00:49:44;10.60;94.50
67161;DHT22;54088;52.238;21.104;2022-10-31T00:52:09;10.60;94.50
67161;DHT22;54088;52.238;21.104;2022-10-31T00:54:35;10.60;94.50
67161;DHT22;54088;52.238;21.104;2022-10-31T00:57:00;10.60;94.50
67161;DHT22;54088;52.238;21.104;2022-10-31T00:59:26;10.50;94.40
67161;DHT22;54088;52.238;21.104;2022-10-31T01:01:51;10.50;94.50
67161;DHT22;54088;52.238;21.104;2022-10-31T01:04:17;10.50;94.70
67161;DHT22;54088;52.238;21.104;2022-10-31T01:06:43;10.40;94.90
67161;DHT22;54088;52.238;21.104;2022-10-31T01:09:08;10.50;95.00
67161;DHT22;54088;52.238;21.104;2022-10-31T01:11:34;10.40;94.90
67161;DHT22;54088;52.238;21.104;2022-10-31T01:13:59;10.40;94.80
67161;DHT22;54088;52.238;21.104;2022-10-31T01:16:26;10.40;94.90
67161;DHT22;54088;52.238;21.104;2022-10-31T01:18:52;10.40;94.80
67161;DHT22;54088;52.238;21.104;2022-10-31T01:21:19;10.40;94.70
67161;DHT22;54088;52.238;21.104;2022-10-31T01:23:45;10.30;94.80
67161;DHT22;54088;52.238;21.104;2022-10-31T01:26:19;10.30;94.70
67161;DHT22;54088;52.238;21.104;2022-10-31T01:28:50;10.20;94.70
67161;DHT22;54088;52.238;21.104;2022-10-31T01:31:18;10.20;94.80
67161;DHT22;54088;52.238;21.104;2022-10-31T01:33:44;10.20;94.90
67161;DHT22;54088;52.238;21.104;2022-10-31T01:36:18;10.10;94.90
67161;DHT22;54088;52.238;21.104;2022-10-31T01:38:48;10.10;94.80
67161;DHT22;54088;52.238;21.104;2022-10-31T01:41:17;10.10;94.90
67161;DHT22;54088;52.238;21.104;2022-10-31T01:43:50;10.10;95.00
67161;DHT22;54088;52.238;21.104;2022-10-31T01:46:30;10.10;95.10
67161;DHT22;54088;52.238;21.104;2022-10-31T01:49:00;10.10;95.20
67161;DHT22;54088;52.238;21.104;2022-10-31T01:51:30;10.10;95.40
67161;DHT22;54088;52.238;21.104;2022-10-31T01:54:02;10.10;95.50
67161;DHT22;54088;52.238;21.104;2022-10-31T01:56:29;10.10;95.50
67161;DHT22;54088;52.238;21.104;2022-10-31T01:58:57;10.10;95.50
67161;DHT22;54088;52.238;21.104;2022-10-31T02:01:23;10.10;95.50
67161;DHT22;54088;52.238;21.104;2022-10-31T02:03:50;10.10;95.50
67161;DHT22;54088;52.238;21.104;2022-10-31T02:06:27;10.00;95.70
67161;DHT22;54088;52.238;21.104;2022-10-31T02:08:57;10.00;95.80
67161;DHT22;54088;52.238;21.104;2022-10-31T02:11:25;10.00;96.00
67161;DHT22;54088;52.238;21.104;2022-10-31T02:13:51;10.00;96.00
67161;DHT22;54088;52.238;21.104;2022-10-31T02:16:17;10.00;96.00
67161;DHT22;54088;52.238;21.104;2022-10-31T02:18:42;10.00;96.10
67161;DHT22;54088;52.238;21.104;2022-10-31T02:27:25;10.00;96.40
67161;DHT22;54088;52.238;21.104;2022-10-31T02:30:17;9.90;96.30
67161;DHT22;54088;52.238;21.104;2022-10-31T02:35:24;9.90;96.10
67161;DHT22;54088;52.238;21.104;2022-10-31T02:43:43;9.80;96.30
67161;DHT22;54088;52.238;21.104;2022-10-31T02:48:48;9.70;96.60
67161;DHT22;54088;52.238;21.104;2022-10-31T02:51:16;9.70;96.90
67161;DHT22;54088;52.238;21.104;2022-10-31T02:53:43;9.60;97.00
67161;DHT22;54088;52.238;21.104;2022-10-31T02:56:11;9.60;97.00
67161;DHT22;54088;52.238;21.104;2022-10-31T02:58:42;9.60;97.10
67161;DHT22;54088;52.238;21.104;2022-10-31T03:12:30;9.60;96.90
67161;DHT22;54088;52.238;21.104;2022-10-31T03:15:19;9.70;97.00
67161;DHT22;54088;52.238;21.104;2022-10-31T03:21:12;9.70;96.60
67161;DHT22;54088;52.238;21.104;2022-10-31T03:23:30;9.70;96.50
67161;DHT22;54088;52.238;21.104;2022-10-31T03:26:00;9.70;96.40
67161;DHT22;54088;52.238;21.104;2022-10-31T03:28:30;9.60;96.30
67161;DHT22;54088;52.238;21.104;2022-10-31T03:31:01;9.60;96.20
67161;DHT22;54088;52.238;21.104;2022-10-31T03:33:31;9.60;96.10
67161;DHT22;54088;52.238;21.104;2022-10-31T03:36:00;9.60;96.10
67161;DHT22;54088;52.238;21.104;2022-10-31T03:38:28;9.60;96.10
67161;DHT22;54088;52.238;21.104;2022-10-31T03:40:56;9.50;96.30
67161;DHT22;54088;52.238;21.104;2022-10-31T03:43:28;9.50;96.50
67161;DHT22;54088;52.238;21.104;2022-10-31T03:45:55;9.50;96.60
67161;DHT22;54088;52.238;21.104;2022-10-31T03:48:21;9.50;96.50
67161;DHT22;54088;52.238;21.104;2022-10-31T03:51:08;9.50;96.50
67161;DHT22;54088;52.238;21.104;2022-10-31T03:53:52;9.50;96.30
67161;DHT22;54088;52.238;21.104;2022-10-31T03:56:34;9.40;96.30
67161;DHT22;54088;52.238;21.104;2022-10-31T03:59:07;9.40;96.30
67161;DHT22;54088;52.238;21.104;2022-10-31T04:01:38;9.40;96.30
67161;DHT22;54088;52.238;21.104;2022-10-31T04:04:05;9.40;96.30
67161;DHT22;54088;52.238;21.104;2022-10-31T04:06:34;9.30;96.30
67161;DHT22;54088;52.238;21.104;2022-10-31T04:09:02;9.30;96.20
67161;DHT22;54088;52.238;21.104;2022-10-31T04:11:32;9.20;96.40
67161;DHT22;54088;52.238;21.104;2022-10-31T04:14:01;9.20;96.40
67161;DHT22;54088;52.238;21.104;2022-10-31T04:16:28;9.20;96.50
67161;DHT22;54088;52.238;21.104;2022-10-31T04:18:54;9.20;96.50
67161;DHT22;54088;52.238;21.104;2022-10-31T04:21:27;9.20;96.40
67161;DHT22;54088;52.238;21.104;2022-10-31T04:23:53;9.10;96.40
67161;DHT22;54088;52.238;21.104;2022-10-31T04:26:19;9.10;96.40
67161;DHT22;54088;52.238;21.104;2022-10-31T04:28:45;9.10;96.30
67161;DHT22;54088;52.238;21.104;2022-10-31T04:31:13;9.00;96.30
67161;DHT22;54088;52.238;21.104;2022-10-31T04:33:39;9.00;96.40
67161;DHT22;54088;52.238;21.104;2022-10-31T04:36:05;8.90;96.40
67161;DHT22;54088;52.238;21.104;2022-10-31T04:38:31;8.90;96.40
67161;DHT22;54088;52.238;21.104;2022-10-31T04:40:56;8.90;96.50
67161;DHT22;54088;52.238;21.104;2022-10-31T04:43:22;8.80;96.60
67161;DHT22;54088;52.238;21.104;2022-10-31T04:45:48;8.80;96.70
67161;DHT22;54088;52.238;21.104;2022-10-31T04:48:13;8.80;96.60
67161;DHT22;54088;52.238;21.104;2022-10-31T04:50:39;8.70;96.60
67161;DHT22;54088;52.238;21.104;2022-10-31T04:53:05;8.70;96.70
67161;DHT22;54088;52.238;21.104;2022-10-31T04:55:30;8.70;96.70
67161;DHT22;54088;52.238;21.104;2022-10-31T04:57:56;8.70;96.60
67161;DHT22;54088;52.238;21.104;2022-10-31T05:00:22;8.60;96.60
67161;DHT22;54088;52.238;21.104;2022-10-31T05:02:49;8.70;96.70
67161;DHT22;54088;52.238;21.104;2022-10-31T05:05:16;8.70;96.70
67161;DHT22;54088;52.238;21.104;2022-10-31T05:07:43;8.70;96.40
67161;DHT22;54088;52.238;21.104;2022-10-31T05:10:14;8.70;96.40
67161;DHT22;54088;52.238;21.104;2022-10-31T05:12:51;8.70;96.40
67161;DHT22;54088;52.238;21.104;2022-10-31T05:15:21;8.70;96.30
67161;DHT22;54088;52.238;21.104;2022-10-31T05:17:47;8.70;96.20
67161;DHT22;54088;52.238;21.104;2022-10-31T05:20:14;8.70;96.10
67161;DHT22;54088;52.238;21.104;2022-10-31T05:22:47;8.70;96.10
67161;DHT22;54088;52.238;21.104;2022-10-31T05:25:14;8.60;95.90
67161;DHT22;54088;52.238;21.104;2022-10-31T05:27:41;8.50;96.00
67161;DHT22;54088;52.238;21.104;2022-10-31T05:30:07;8.40;96.10
67161;DHT22;54088;52.238;21.104;2022-10-31T05:32:44;8.30;96.20
67161;DHT22;54088;52.238;21.104;2022-10-31T05:35:12;8.30;96.40
67161;DHT22;54088;52.238;21.104;2022-10-31T05:37:39;8.30;96.40
67161;DHT22;54088;52.238;21.104;2022-10-31T05:40:07;8.30;96.60
67161;DHT22;54088;52.238;21.104;2022-10-31T05:42:32;8.30;96.60
67161;DHT22;54088;52.238;21.104;2022-10-31T05:44:58;8.40;96.60
67161;DHT22;54088;52.238;21.104;2022-10-31T05:47:24;8.50;96.70
67161;DHT22;54088;52.238;21.104;2022-10-31T05:49:50;8.50;96.60
67161;DHT22;54088;52.238;21.104;2022-10-31T05:52:16;8.60;96.50
67161;DHT22;54088;52.238;21.104;2022-10-31T05:54:42;8.60;96.80
67161;DHT22;54088;52.238;21.104;2022-10-31T05:57:07;8.70;96.30
67161;DHT22;54088;52.238;21.104;2022-10-31T05:59:33;8.80;96.30
67161;DHT22;54088;52.238;21.104;2022-10-31T06:01:59;8.80;96.30
67161;DHT22;54088;52.238;21.104;2022-10-31T06:04:24;8.90;96.20
67161;DHT22;54088;52.238;21.104;2022-10-31T06:06:50;8.90;96.20
67161;DHT22;54088;52.238;21.104;2022-10-31T06:09:16;9.00;96.40
67161;DHT22;54088;52.238;21.104;2022-10-31T06:11:41;9.10;96.50
67161;DHT22;54088;52.238;21.104;2022-10-31T06:14:07;9.10;96.40
67161;DHT22;54088;52.238;21.104;2022-10-31T06:16:32;9.30;96.30
67161;DHT22;54088;52.238;21.104;2022-10-31T06:18:58;9.30;96.20
67161;DHT22;54088;52.238;21.104;2022-10-31T06:21:24;9.40;96.10
67161;DHT22;54088;52.238;21.104;2022-10-31T06:23:50;9.40;95.90
67161;DHT22;54088;52.238;21.104;2022-10-31T06:26:15;9.50;95.90
67161;DHT22;54088;52.238;21.104;2022-10-31T06:28:41;9.60;95.70
67161;DHT22;54088;52.238;21.104;2022-10-31T06:31:06;9.70;95.60
67161;DHT22;54088;52.238;21.104;2022-10-31T06:33:33;9.80;95.40
67161;DHT22;54088;52.238;21.104;2022-10-31T06:35:59;9.90;95.20
67161;DHT22;54088;52.238;21.104;2022-10-31T06:38:28;10.10;94.90
67161;DHT22;54088;52.238;21.104;2022-10-31T06:40:54;10.20;94.50
67161;DHT22;54088;52.238;21.104;2022-10-31T06:43:21;10.20;94.10
67161;DHT22;54088;52.238;21.104;2022-10-31T06:45:46;10.20;93.60
67161;DHT22;54088;52.238;21.104;2022-10-31T06:48:12;10.10;93.30
67161;DHT22;54088;52.238;21.104;2022-10-31T06:50:38;10.10;93.50
67161;DHT22;54088;52.238;21.104;2022-10-31T06:53:03;10.10;93.50
67161;DHT22;54088;52.238;21.104;2022-10-31T06:55:29;10.10;93.40
67161;DHT22;54088;52.238;21.104;2022-10-31T06:57:56;10.10;93.40
67161;DHT22;54088;52.238;21.104;2022-10-31T07:00:22;10.20;93.50
67161;DHT22;54088;52.238;21.104;2022-10-31T07:02:59;10.20;93.20
67161;DHT22;54088;52.238;21.104;2022-10-31T07:05:26;10.00;93.20
67161;DHT22;54088;52.238;21.104;2022-10-31T07:08:00;9.90;93.60
67161;DHT22;54088;52.238;21.104;2022-10-31T07:10:27;9.90;93.90
67161;DHT22;54088;52.238;21.104;2022-10-31T07:13:01;9.90;93.90
67161;DHT22;54088;52.238;21.104;2022-10-31T07:15:29;9.90;94.20
67161;DHT22;54088;52.238;21.104;2022-10-31T07:18:03;9.90;94.20
67161;DHT22;54088;52.238;21.104;2022-10-31T07:20:30;9.90;94.30
67161;DHT22;54088;52.238;21.104;2022-10-31T07:22:56;9.90;94.30
67161;DHT22;54088;52.238;21.104;2022-10-31T07:25:22;9.90;94.50
67161;DHT22;54088;52.238;21.104;2022-10-31T07:27:48;9.90;94.50
67161;DHT22;54088;52.238;21.104;2022-10-31T07:30:14;9.90;94.60
67161;DHT22;54088;52.238;21.104;2022-10-31T07:32:47;9.90;94.80
67161;DHT22;54088;52.238;21.104;2022-10-31T07:35:32;9.90;95.00
67161;DHT22;54088;52.238;21.104;2022-10-31T07:38:06;10.00;95.00
67161;DHT22;54088;52.238;21.104;2022-10-31T07:40:32;10.20;94.60
67161;DHT22;54088;52.238;21.104;2022-10-31T07:42:57;10.40;94.50
67161;DHT22;54088;52.238;21.104;2022-10-31T07:45:23;10.50;94.10
67161;DHT22;54088;52.238;21.104;2022-10-31T07:47:50;10.70;93.90
67161;DHT22;54088;52.238;21.104;2022-10-31T07:50:22;10.90;93.80
67161;DHT22;54088;52.238;21.104;2022-10-31T07:52:57;11.20;93.40
67161;DHT22;54088;52.238;21.104;2022-10-31T07:55:23;11.40;92.80
67161;DHT22;54088;52.238;21.104;2022-10-31T07:58:05;11.80;92.30
67161;DHT22;54088;52.238;21.104;2022-10-31T08:00:32;12.40;91.40
67161;DHT22;54088;52.238;21.104;2022-10-31T08:03:04;13.10;90.20
67161;DHT22;54088;52.238;21.104;2022-10-31T08:05:32;13.60;87.70
67161;DHT22;54088;52.238;21.104;2022-10-31T08:07:58;14.00;86.00
67161;DHT22;54088;52.238;21.104;2022-10-31T08:10:25;14.40;85.00
67161;DHT22;54088;52.238;21.104;2022-10-31T08:15:23;15.20;81.90
67161;DHT22;54088;52.238;21.104;2022-10-31T08:17:48;15.60;80.90
67161;DHT22;54088;52.238;21.104;2022-10-31T08:20:14;16.00;78.20
67161;DHT22;54088;52.238;21.104;2022-10-31T08:22:40;16.20;77.00
67161;DHT22;54088;52.238;21.104;2022-10-31T08:25:05;16.30;75.50
67161;DHT22;54088;52.238;21.104;2022-10-31T08:27:31;16.60;74.00
67161;DHT22;54088;52.238;21.104;2022-10-31T08:29:57;16.90;72.80
67161;DHT22;54088;52.238;21.104;2022-10-31T08:32:24;17.20;71.30
67161;DHT22;54088;52.238;21.104;2022-10-31T08:34:49;17.50;71.40
67161;DHT22;54088;52.238;21.104;2022-10-31T08:37:15;18.00;71.00
67161;DHT22;54088;52.238;21.104;2022-10-31T08:39:48;18.50;69.30
67161;DHT22;54088;52.238;21.104;2022-10-31T08:42:16;18.90;67.40
67161;DHT22;54088;52.238;21.104;2022-10-31T08:44:42;19.20;65.90
67161;DHT22;54088;52.238;21.104;2022-10-31T08:47:08;19.50;65.30
67161;DHT22;54088;52.238;21.104;2022-10-31T08:49:33;19.80;65.20
67161;DHT22;54088;52.238;21.104;2022-10-31T08:51:59;20.20;64.60
67161;DHT22;54088;52.238;21.104;2022-10-31T08:54:25;20.50;62.70
67161;DHT22;54088;52.238;21.104;2022-10-31T08:56:54;20.30;61.80
67161;DHT22;54088;52.238;21.104;2022-10-31T08:59:20;20.50;61.50
67161;DHT22;54088;52.238;21.104;2022-10-31T09:01:46;20.90;61.80
67161;DHT22;54088;52.238;21.104;2022-10-31T09:04:11;21.20;60.60
67161;DHT22;54088;52.238;21.104;2022-10-31T09:06:37;21.60;60.00
67161;DHT22;54088;52.238;21.104;2022-10-31T09:09:03;21.90;58.80
67161;DHT22;54088;52.238;21.104;2022-10-31T09:11:30;22.20;57.90
67161;DHT22;54088;52.238;21.104;2022-10-31T09:13:56;22.40;57.30
67161;DHT22;54088;52.238;21.104;2022-10-31T09:16:22;22.50;57.40
67161;DHT22;54088;52.238;21.104;2022-10-31T09:18:47;22.80;56.30
67161;DHT22;54088;52.238;21.104;2022-10-31T09:21:13;22.90;56.00
67161;DHT22;54088;52.238;21.104;2022-10-31T09:23:38;23.10;55.80
67161;DHT22;54088;52.238;21.104;2022-10-31T09:26:04;23.10;54.80
67161;DHT22;54088;52.238;21.104;2022-10-31T09:28:30;23.30;54.30
67161;DHT22;54088;52.238;21.104;2022-10-31T09:30:57;23.20;54.50
67161;DHT22;54088;52.238;21.104;2022-10-31T09:33:23;23.30;54.30
67161;DHT22;54088;52.238;21.104;2022-10-31T09:35:48;23.40;54.30
67161;DHT22;54088;52.238;21.104;2022-10-31T09:38:16;23.70;53.30
67161;DHT22;54088;52.238;21.104;2022-10-31T09:40:45;23.70;52.80
67161;DHT22;54088;52.238;21.104;2022-10-31T09:46:15;23.80;53.80
67161;DHT22;54088;52.238;21.104;2022-10-31T09:51:30;24.30;52.40
67161;DHT22;54088;52.238;21.104;2022-10-31T09:54:02;24.40;51.90
67161;DHT22;54088;52.238;21.104;2022-10-31T09:56:31;24.30;52.70
67161;DHT22;54088;52.238;21.104;2022-10-31T09:58:58;24.50;52.60
67161;DHT22;54088;52.238;21.104;2022-10-31T10:01:38;24.40;52.40
67161;DHT22;54088;52.238;21.104;2022-10-31T10:04:31;24.10;52.50
67161;DHT22;54088;52.238;21.104;2022-10-31T10:07:02;23.40;53.10
67161;DHT22;54088;52.238;21.104;2022-10-31T10:09:30;22.80;54.30
67161;DHT22;54088;52.238;21.104;2022-10-31T10:22:55;21.00;59.10
67161;DHT22;54088;52.238;21.104;2022-10-31T10:25:38;20.70;59.50
67161;DHT22;54088;52.238;21.104;2022-10-31T10:28:30;20.50;60.90
67161;DHT22;54088;52.238;21.104;2022-10-31T10:31:07;20.40;61.20
67161;DHT22;54088;52.238;21.104;2022-10-31T10:33:38;20.30;61.80
67161;DHT22;54088;52.238;21.104;2022-10-31T10:36:12;20.10;62.00
67161;DHT22;54088;52.238;21.104;2022-10-31T10:41:19;20.00;62.60
67161;DHT22;54088;52.238;21.104;2022-10-31T10:43:45;19.90;62.50
67161;DHT22;54088;52.238;21.104;2022-10-31T10:46:32;19.80;63.10
67161;DHT22;54088;52.238;21.104;2022-10-31T10:55:12;19.50;63.80
67161;DHT22;54088;52.238;21.104;2022-10-31T11:00:24;19.20;65.20
67161;DHT22;54088;52.238;21.104;2022-10-31T11:02:50;19.10;65.50
67161;DHT22;54088;52.238;21.104;2022-10-31T11:05:42;19.00;65.90
67161;DHT22;54088;52.238;21.104;2022-10-31T11:08:11;18.90;65.70
67161;DHT22;54088;52.238;21.104;2022-10-31T11:10:37;18.80;65.90
67161;DHT22;54088;52.238;21.104;2022-10-31T11:15:49;18.50;66.80
67161;DHT22;54088;52.238;21.104;2022-10-31T11:18:37;18.50;66.90
67161;DHT22;54088;52.238;21.104;2022-10-31T11:21:05;18.50;66.80
67161;DHT22;54088;52.238;21.104;2022-10-31T11:23:32;18.50;66.80
67161;DHT22;54088;52.238;21.104;2022-10-31T11:26:05;18.40;66.20
67161;DHT22;54088;52.238;21.104;2022-10-31T11:28:33;18.40;66.50
67161;DHT22;54088;52.238;21.104;2022-10-31T11:31:05;18.40;66.90
67161;DHT22;54088;52.238;21.104;2022-10-31T11:33:37;18.40;66.80
67161;DHT22;54088;52.238;21.104;2022-10-31T11:36:21;18.40;66.40
67161;DHT22;54088;52.238;21.104;2022-10-31T11:38:48;18.30;66.90
67161;DHT22;54088;52.238;21.104;2022-10-31T11:41:17;18.20;67.50
67161;DHT22;54088;52.238;21.104;2022-10-31T11:44:14;18.00;67.80
67161;DHT22;54088;52.238;21.104;2022-10-31T11:46:42;18.00;67.80
67161;DHT22;54088;52.238;21.104;2022-10-31T11:49:16;18.00;67.70
67161;DHT22;54088;52.238;21.104;2022-10-31T11:51:48;18.00;67.40
67161;DHT22;54088;52.238;21.104;2022-10-31T11:54:48;18.00;67.40
67161;DHT22;54088;52.238;21.104;2022-10-31T11:59:52;17.80;68.10
67161;DHT22;54088;52.238;21.104;2022-10-31T12:02:19;17.80;68.50
67161;DHT22;54088;52.238;21.104;2022-10-31T12:04:48;17.90;68.50
67161;DHT22;54088;52.238;21.104;2022-10-31T12:07:14;18.00;68.50
67161;DHT22;54088;52.238;21.104;2022-10-31T12:09:40;18.00;68.30
67161;DHT22;54088;52.238;21.104;2022-10-31T12:20:23;17.90;68.30
67161;DHT22;54088;52.238;21.104;2022-10-31T12:23:35;17.90;68.40
67161;DHT22;54088;52.238;21.104;2022-10-31T12:26:18;17.90;67.80
67161;DHT22;54088;52.238;21.104;2022-10-31T12:35:22;17.80;68.20
67161;DHT22;54088;52.238;21.104;2022-10-31T12:49:05;17.70;69.20
67161;DHT22;54088;52.238;21.104;2022-10-31T12:59:30;17.80;69.50
67161;DHT22;54088;52.238;21.104;2022-10-31T13:07:39;17.80;69.90
67161;DHT22;54088;52.238;21.104;2022-10-31T13:12:57;17.80;70.10
67161;DHT22;54088;52.238;21.104;2022-10-31T13:15:27;17.70;70.10
67161;DHT22;54088;52.238;21.104;2022-10-31T13:17:59;17.70;70.50
67161;DHT22;54088;52.238;21.104;2022-10-31T13:20:32;17.70;70.80
67161;DHT22;54088;52.238;21.104;2022-10-31T13:23:32;17.60;71.30
67161;DHT22;54088;52.238;21.104;2022-10-31T13:26:01;17.50;71.80
67161;DHT22;54088;52.238;21.104;2022-10-31T13:28:45;17.50;72.30
67161;DHT22;54088;52.238;21.104;2022-10-31T13:31:11;17.50;72.50
67161;DHT22;54088;52.238;21.104;2022-10-31T13:33:46;17.50;73.00
67161;DHT22;54088;52.238;21.104;2022-10-31T13:36:31;17.50;73.50
67161;DHT22;54088;52.238;21.104;2022-10-31T13:42:01;17.40;74.10
67161;DHT22;54088;52.238;21.104;2022-10-31T13:44:29;17.40;74.40
67161;DHT22;54088;52.238;21.104;2022-10-31T13:46:58;17.40;74.60
67161;DHT22;54088;52.238;21.104;2022-10-31T13:57:18;17.30;75.20
67161;DHT22;54088;52.238;21.104;2022-10-31T13:59:51;17.30;75.40
67161;DHT22;54088;52.238;21.104;2022-10-31T14:02:26;17.30;75.70
67161;DHT22;54088;52.238;21.104;2022-10-31T14:07:30;17.20;76.00
67161;DHT22;54088;52.238;21.104;2022-10-31T14:12:46;17.10;76.10
67161;DHT22;54088;52.238;21.104;2022-10-31T14:15:24;17.10;76.10
67161;DHT22;54088;52.238;21.104;2022-10-31T14:17:56;17.10;75.90
67161;DHT22;54088;52.238;21.104;2022-10-31T14:25:50;16.90;76.10
67161;DHT22;54088;52.238;21.104;2022-10-31T14:28:21;16.90;76.60
67161;DHT22;54088;52.238;21.104;2022-10-31T14:30:56;16.80;77.60
67161;DHT22;54088;52.238;21.104;2022-10-31T14:33:24;16.80;78.70
67161;DHT22;54088;52.238;21.104;2022-10-31T14:36:18;16.70;79.10
67161;DHT22;54088;52.238;21.104;2022-10-31T14:38:58;16.60;80.00
67161;DHT22;54088;52.238;21.104;2022-10-31T14:47:04;16.30;81.60
67161;DHT22;54088;52.238;21.104;2022-10-31T14:50:12;16.30;82.20
67161;DHT22;54088;52.238;21.104;2022-10-31T14:52:50;16.20;82.90
67161;DHT22;54088;52.238;21.104;2022-10-31T14:55:17;16.00;83.70
67161;DHT22;54088;52.238;21.104;2022-10-31T14:58:05;15.90;84.50
67161;DHT22;54088;52.238;21.104;2022-10-31T15:00:33;15.80;85.50
67161;DHT22;54088;52.238;21.104;2022-10-31T15:05:33;15.60;86.80
67161;DHT22;54088;52.238;21.104;2022-10-31T15:08:00;15.50;87.70
67161;DHT22;54088;52.238;21.104;2022-10-31T15:10:31;15.40;88.40
67161;DHT22;54088;52.238;21.104;2022-10-31T15:13:18;15.30;89.20
67161;DHT22;54088;52.238;21.104;2022-10-31T15:15:45;15.20;90.10
67161;DHT22;54088;52.238;21.104;2022-10-31T15:18:17;15.10;90.30
67161;DHT22;54088;52.238;21.104;2022-10-31T15:20:45;15.00;90.60
67161;DHT22;54088;52.238;21.104;2022-10-31T15:23:16;14.90;90.60
67161;DHT22;54088;52.238;21.104;2022-10-31T15:25:42;14.90;90.70
67161;DHT22;54088;52.238;21.104;2022-10-31T15:28:34;14.80;90.80
67161;DHT22;54088;52.238;21.104;2022-10-31T15:31:01;14.70;90.80
67161;DHT22;54088;52.238;21.104;2022-10-31T15:33:48;14.60;91.00
67161;DHT22;54088;52.238;21.104;2022-10-31T15:36:23;14.50;91.10
67161;DHT22;54088;52.238;21.104;2022-10-31T15:38:49;14.40;91.30
67161;DHT22;54088;52.238;21.104;2022-10-31T15:44:02;14.30;91.30
67161;DHT22;54088;52.238;21.104;2022-10-31T15:46:28;14.10;91.50
67161;DHT22;54088;52.238;21.104;2022-10-31T15:48:55;14.00;91.80
67161;DHT22;54088;52.238;21.104;2022-10-31T15:51:30;13.90;92.00
67161;DHT22;54088;52.238;21.104;2022-10-31T15:53:58;13.90;92.40
67161;DHT22;54088;52.238;21.104;2022-10-31T15:56:30;13.80;92.50
67161;DHT22;54088;52.238;21.104;2022-10-31T15:58:58;13.70;92.70
67161;DHT22;54088;52.238;21.104;2022-10-31T16:01:32;13.70;92.80
67161;DHT22;54088;52.238;21.104;2022-10-31T16:06:28;13.60;93.00
67161;DHT22;54088;52.238;21.104;2022-10-31T16:08:54;13.60;93.20
67161;DHT22;54088;52.238;21.104;2022-10-31T16:11:24;13.60;93.20
67161;DHT22;54088;52.238;21.104;2022-10-31T16:16:22;13.50;93.30
67161;DHT22;54088;52.238;21.104;2022-10-31T16:18:50;13.50;93.50
67161;DHT22;54088;52.238;21.104;2022-10-31T16:21:24;13.50;93.60
67161;DHT22;54088;52.238;21.104;2022-10-31T16:23:54;13.40;93.70
67161;DHT22;54088;52.238;21.104;2022-10-31T16:26:20;13.40;93.80
67161;DHT22;54088;52.238;21.104;2022-10-31T16:28:57;13.40;93.90
67161;DHT22;54088;52.238;21.104;2022-10-31T16:31:29;13.40;94.20
67161;DHT22;54088;52.238;21.104;2022-10-31T16:34:03;13.50;94.30
67161;DHT22;54088;52.238;21.104;2022-10-31T16:36:32;13.40;94.20
67161;DHT22;54088;52.238;21.104;2022-10-31T16:38:58;13.50;94.30
67161;DHT22;54088;52.238;21.104;2022-10-31T16:41:24;13.50;94.30
67161;DHT22;54088;52.238;21.104;2022-10-31T16:43:51;13.50;94.40
67161;DHT22;54088;52.238;21.104;2022-10-31T16:46:24;13.40;94.50
67161;DHT22;54088;52.238;21.104;2022-10-31T16:48:51;13.40;94.50
67161;DHT22;54088;52.238;21.104;2022-10-31T16:51:17;13.30;94.50
67161;DHT22;54088;52.238;21.104;2022-10-31T16:53:43;13.30;94.80
67161;DHT22;54088;52.238;21.104;2022-10-31T16:56:15;13.30;94.90
67161;DHT22;54088;52.238;21.104;2022-10-31T16:58:42;13.30;94.90
67161;DHT22;54088;52.238;21.104;2022-10-31T17:01:08;13.30;95.00
67161;DHT22;54088;52.238;21.104;2022-10-31T17:03:34;13.20;95.20
67161;DHT22;54088;52.238;21.104;2022-10-31T17:06:00;13.20;95.40
67161;DHT22;54088;52.238;21.104;2022-10-31T17:08:25;13.20;95.40
67161;DHT22;54088;52.238;21.104;2022-10-31T17:10:54;13.20;95.70
67161;DHT22;54088;52.238;21.104;2022-10-31T17:13:23;13.10;95.80
67161;DHT22;54088;52.238;21.104;2022-10-31T17:15:52;13.10;96.20
67161;DHT22;54088;52.238;21.104;2022-10-31T17:18:19;13.10;96.40
67161;DHT22;54088;52.238;21.104;2022-10-31T17:20:46;13.00;96.50
67161;DHT22;54088;52.238;21.104;2022-10-31T17:23:13;13.10;96.80
67161;DHT22;54088;52.238;21.104;2022-10-31T17:25:39;13.10;96.90
67161;DHT22;54088;52.238;21.104;2022-10-31T17:28:05;13.10;96.80
67161;DHT22;54088;52.238;21.104;2022-10-31T17:30:31;13.20;96.90
67161;DHT22;54088;52.238;21.104;2022-10-31T17:32:58;13.20;97.00
67161;DHT22;54088;52.238;21.104;2022-10-31T17:35:23;13.20;97.10
67161;DHT22;54088;52.238;21.104;2022-10-31T17:37:49;13.20;97.00
67161;DHT22;54088;52.238;21.104;2022-10-31T17:40:17;13.20;97.10
67161;DHT22;54088;52.238;21.104;2022-10-31T17:42:56;13.20;97.20
67161;DHT22;54088;52.238;21.104;2022-10-31T17:45:23;13.20;97.50
67161;DHT22;54088;52.238;21.104;2022-10-31T17:47:50;13.30;97.10
67161;DHT22;54088;52.238;21.104;2022-10-31T17:50:17;13.30;97.20
67161;DHT22;54088;52.238;21.104;2022-10-31T17:52:43;13.30;97.40
67161;DHT22;54088;52.238;21.104;2022-10-31T17:55:09;13.30;97.20
67161;DHT22;54088;52.238;21.104;2022-10-31T17:57:36;13.30;97.30
67161;DHT22;54088;52.238;21.104;2022-10-31T18:00:03;13.30;97.30
67161;DHT22;54088;52.238;21.104;2022-10-31T18:02:29;13.30;97.40